createdAt,value
2018-10-07T00:00:46.072Z,99587.78
2018-10-07T00:03:15.722Z,99595.34
2018-10-07T00:05:44.919Z,99596.63
2018-10-07T00:08:14.376Z,99598.20
2018-10-07T00:10:43.600Z,99590.64
2018-10-07T00:13:13.412Z,99591.23
2018-10-07T00:15:42.652Z,99595.74
2018-10-07T00:18:11.848Z,99601.94
2018-10-07T00:20:41.076Z,99600.59
2018-10-07T00:23:10.327Z,99607.47
2018-10-07T00:25:39.524Z,99606.29
2018-10-07T00:28:08.789Z,99612.72
2018-10-07T00:30:38.046Z,99611.02
2018-10-07T00:33:07.439Z,99613.62
2018-10-07T00:38:04.647Z,99609.52
2018-10-07T00:40:33.812Z,99611.16
2018-10-07T00:43:03.002Z,99613.49
2018-10-07T00:45:32.266Z,99610.51
2018-10-07T00:48:01.487Z,99619.25
2018-10-07T00:50:30.725Z,99619.48
2018-10-07T00:52:59.936Z,99614.63
2018-10-07T00:55:29.160Z,99623.92
2018-10-07T00:57:58.378Z,99621.14
2018-10-07T01:00:27.607Z,99626.00
2018-10-07T01:02:56.934Z,99630.87
2018-10-07T01:05:26.157Z,99636.88
2018-10-07T01:07:55.385Z,99634.72
2018-10-07T01:10:24.591Z,99633.50
2018-10-07T01:12:53.788Z,99636.66
2018-10-07T01:15:23.023Z,99630.38
2018-10-07T01:17:52.239Z,99631.79
2018-10-07T01:20:21.533Z,99638.61
2018-10-07T01:22:50.814Z,99635.38
2018-10-07T01:25:20.614Z,99635.75
2018-10-07T01:27:49.839Z,99632.46
2018-10-07T01:30:23.533Z,99636.57
2018-10-07T01:32:54.521Z,99643.91
2018-10-07T01:35:24.196Z,99649.47
2018-10-07T01:37:53.452Z,99656.88
2018-10-07T01:40:22.696Z,99654.23
2018-10-07T01:42:51.887Z,99652.75
2018-10-07T01:45:21.894Z,99657.22
2018-10-07T01:47:51.102Z,99656.61
2018-10-07T01:50:20.887Z,99649.21
2018-10-07T01:52:50.128Z,99650.55
2018-10-07T01:55:20.531Z,99648.91
2018-10-07T01:57:49.739Z,99649.78
2018-10-07T02:00:19.163Z,99651.80
2018-10-07T02:02:48.371Z,99656.13
2018-10-07T02:05:18.958Z,99653.97
2018-10-07T02:07:48.149Z,99647.51
2018-10-07T02:10:18.083Z,99652.09
2018-10-07T02:12:47.282Z,99651.62
2018-10-07T02:15:17.906Z,99657.15
2018-10-07T02:17:47.097Z,99654.91
2018-10-07T02:20:17.641Z,99658.02
2018-10-07T02:22:46.886Z,99662.23
2018-10-07T02:25:17.098Z,99659.91
2018-10-07T02:27:46.297Z,99663.05
2018-10-07T02:30:16.104Z,99663.45
2018-10-07T02:32:45.344Z,99665.43
2018-10-07T02:35:15.770Z,99662.99
2018-10-07T02:37:44.991Z,99667.96
2018-10-07T02:40:14.337Z,99665.63
2018-10-07T02:42:43.575Z,99678.36
2018-10-07T02:45:13.607Z,99682.89
2018-10-07T02:47:42.780Z,99675.53
2018-10-07T02:50:22.101Z,99680.53
2018-10-07T02:52:54.104Z,99682.47
2018-10-07T02:55:25.091Z,99685.91
2018-10-07T02:57:55.443Z,99677.86
2018-10-07T03:00:24.688Z,99679.42
2018-10-07T03:02:53.989Z,99681.59
2018-10-07T03:05:23.277Z,99681.05
2018-10-07T03:07:52.468Z,99680.22
2018-10-07T03:10:21.699Z,99682.67
2018-10-07T03:12:50.912Z,99682.91
2018-10-07T03:15:20.830Z,99676.71
2018-10-07T03:17:49.987Z,99675.91
2018-10-07T03:20:20.580Z,99679.72
2018-10-07T03:22:49.944Z,99690.15
2018-10-07T03:25:20.131Z,99690.15
2018-10-07T03:27:49.316Z,99685.09
2018-10-07T03:30:19.608Z,99685.67
2018-10-07T03:32:48.826Z,99697.33
2018-10-07T03:35:18.837Z,99707.94
2018-10-07T03:37:48.019Z,99729.96
2018-10-07T03:40:18.436Z,99742.26
2018-10-07T03:42:47.674Z,99733.79
2018-10-07T03:45:17.573Z,99724.38
2018-10-07T03:47:46.754Z,99730.16
2018-10-07T03:50:15.969Z,99735.08
2018-10-07T03:52:45.156Z,99728.87
2018-10-07T03:55:15.796Z,99724.31
2018-10-07T03:57:45.026Z,99724.04
2018-10-07T04:00:15.209Z,99728.08
2018-10-07T04:02:44.417Z,99731.20
2018-10-07T04:05:13.771Z,99731.88
2018-10-07T04:07:42.979Z,99738.31
2018-10-07T04:10:12.171Z,99740.26
2018-10-07T04:12:41.361Z,99739.88
2018-10-07T04:15:10.620Z,99735.53
2018-10-07T04:17:39.807Z,99752.59
2018-10-07T04:20:09.048Z,99753.33
2018-10-07T04:22:38.253Z,99763.77
2018-10-07T04:25:07.564Z,99764.21
2018-10-07T04:27:36.831Z,99761.44
2018-10-07T04:30:06.104Z,99762.05
2018-10-07T04:32:35.312Z,99767.11
2018-10-07T04:35:04.516Z,99772.58
2018-10-07T04:37:33.753Z,99773.13
2018-10-07T04:40:03.106Z,99788.19
2018-10-07T04:42:32.158Z,99780.95
2018-10-07T04:45:01.348Z,99777.05
2018-10-07T04:47:30.527Z,99783.76
2018-10-07T04:49:59.712Z,99786.23
2018-10-07T04:52:28.895Z,99792.95
2018-10-07T04:54:58.098Z,99788.61
2018-10-07T04:57:27.273Z,99785.10
2018-10-07T04:59:56.489Z,99790.08
2018-10-07T05:02:25.912Z,99796.37
2018-10-07T05:04:55.167Z,99802.26
2018-10-07T05:07:24.391Z,99810.01
2018-10-07T05:10:04.860Z,99802.56
2018-10-07T05:12:34.118Z,99811.98
2018-10-07T05:15:03.404Z,99808.17
2018-10-07T05:17:32.667Z,99815.41
2018-10-07T05:20:01.949Z,99822.11
2018-10-07T05:22:31.149Z,99823.67
2018-10-07T05:25:00.339Z,99831.20
2018-10-07T05:27:29.533Z,99838.23
2018-10-07T05:29:58.780Z,99830.66
2018-10-07T05:32:27.995Z,99832.95
2018-10-07T05:34:57.192Z,99836.86
2018-10-07T05:37:26.379Z,99841.83
2018-10-07T05:39:55.577Z,99851.23
2018-10-07T05:42:24.791Z,99855.77
2018-10-07T05:44:54.041Z,99855.25
2018-10-07T05:47:23.173Z,99854.85
2018-10-07T05:49:52.910Z,99861.33
2018-10-07T05:52:22.168Z,99860.23
2018-10-07T05:54:51.419Z,99867.56
2018-10-07T05:57:20.666Z,99883.50
2018-10-07T05:59:49.920Z,99891.84
2018-10-07T06:02:19.243Z,99898.05
2018-10-07T06:04:52.069Z,99905.01
2018-10-07T06:07:21.545Z,99913.25
2018-10-07T06:09:50.804Z,99916.91
2018-10-07T06:12:20.004Z,99916.87
2018-10-07T06:15:00.355Z,99920.86
2018-10-07T06:17:29.600Z,99926.14
2018-10-07T06:19:58.843Z,99922.02
2018-10-07T06:22:28.098Z,99934.58
2018-10-07T06:24:57.343Z,99933.16
2018-10-07T06:27:27.523Z,99930.08
2018-10-07T06:29:56.847Z,99931.23
2018-10-07T06:32:25.934Z,99930.34
2018-10-07T06:34:55.155Z,99935.51
2018-10-07T06:37:24.434Z,99943.47
2018-10-07T06:39:53.792Z,99947.45
2018-10-07T06:42:22.950Z,99955.20
2018-10-07T06:44:52.137Z,99950.50
2018-10-07T06:47:21.384Z,99953.75
2018-10-07T06:49:50.575Z,99961.64
2018-10-07T06:52:19.842Z,99967.40
2018-10-07T06:54:49.035Z,99966.98
2018-10-07T06:57:18.276Z,99969.30
2018-10-07T06:59:47.477Z,99966.17
2018-10-07T07:02:16.674Z,99973.76
2018-10-07T07:04:45.851Z,99980.53
2018-10-07T07:07:15.136Z,99977.44
2018-10-07T07:09:44.351Z,99989.72
2018-10-07T07:12:13.551Z,99988.48
2018-10-07T07:14:42.724Z,99996.41
2018-10-07T07:17:12.159Z,99995.97
2018-10-07T07:19:41.396Z,100003.08
2018-10-07T07:22:11.127Z,100002.89
2018-10-07T07:24:40.307Z,100004.24
2018-10-07T07:27:10.659Z,100008.06
2018-10-07T07:29:39.844Z,100005.59
2018-10-07T07:32:10.146Z,100008.38
2018-10-07T07:34:39.365Z,100000.61
2018-10-07T07:37:09.234Z,100013.86
2018-10-07T07:39:38.441Z,100013.56
2018-10-07T07:42:07.963Z,100019.03
2018-10-07T07:44:37.161Z,100021.84
2018-10-07T07:47:06.511Z,100019.22
2018-10-07T07:49:35.725Z,100027.06
2018-10-07T07:52:30.783Z,100028.98
2018-10-07T07:55:00.007Z,100028.78
2018-10-07T07:57:29.352Z,100034.70
2018-10-07T07:59:58.571Z,100042.84
2018-10-07T08:02:27.918Z,100039.30
2018-10-07T08:04:57.139Z,100039.95
2018-10-07T08:07:26.362Z,100050.52
2018-10-07T08:09:55.664Z,100051.25
2018-10-07T08:12:25.069Z,100059.09
2018-10-07T08:14:57.236Z,100070.50
2018-10-07T08:17:26.747Z,100066.70
2018-10-07T08:19:55.944Z,100072.99
2018-10-07T08:22:25.291Z,100079.97
2018-10-07T08:24:54.492Z,100088.88
2018-10-07T08:27:23.703Z,100085.23
2018-10-07T08:29:52.888Z,100091.23
2018-10-07T08:32:22.232Z,100100.37
2018-10-07T08:34:51.429Z,100097.70
2018-10-07T08:37:20.651Z,100094.17
2018-10-07T08:39:49.831Z,100100.48
2018-10-07T08:42:19.083Z,100114.37
2018-10-07T08:44:48.343Z,100123.30
2018-10-07T08:47:17.660Z,100118.17
2018-10-07T08:49:46.949Z,100120.55
2018-10-07T08:52:16.139Z,100121.38
2018-10-07T08:54:45.336Z,100134.69
2018-10-07T08:57:14.535Z,100134.58
2018-10-07T08:59:43.737Z,100142.23
2018-10-07T09:02:13.025Z,100136.61
2018-10-07T09:04:42.179Z,100145.98
2018-10-07T09:07:11.813Z,100144.63
2018-10-07T09:09:41.009Z,100144.59
2018-10-07T09:12:10.704Z,100144.86
2018-10-07T09:14:39.914Z,100148.27
2018-10-07T09:17:09.370Z,100152.80
2018-10-07T09:19:38.593Z,100163.89
2018-10-07T09:22:08.142Z,100164.42
2018-10-07T09:24:37.308Z,100170.02
2018-10-07T09:27:06.752Z,100168.01
2018-10-07T09:29:36.042Z,100166.44
2018-10-07T09:32:05.303Z,100181.44
2018-10-07T09:34:34.495Z,100182.41
2018-10-07T09:37:03.881Z,100188.02
2018-10-07T09:39:33.113Z,100201.53
2018-10-07T09:42:02.318Z,100205.91
2018-10-07T09:44:31.539Z,100207.44
2018-10-07T09:47:00.829Z,100220.75
2018-10-07T09:49:30.094Z,100223.17
2018-10-07T09:51:59.338Z,100224.00
2018-10-07T09:54:28.532Z,100220.27
2018-10-07T09:56:57.783Z,100230.72
2018-10-07T09:59:27.042Z,100224.64
2018-10-07T10:01:57.555Z,100232.72
2018-10-07T10:04:27.983Z,100224.68
2018-10-07T10:06:59.191Z,100226.83
2018-10-07T10:09:29.583Z,100237.16
2018-10-07T10:11:59.880Z,100241.30
2018-10-07T10:14:29.923Z,100240.73
2018-10-07T10:17:07.623Z,100236.36
2018-10-07T10:20:00.867Z,100240.36
2018-10-07T10:22:37.401Z,100230.61
2018-10-07T10:25:20.463Z,100223.08
2018-10-07T10:27:58.613Z,100224.54
2018-10-07T10:30:30.855Z,100231.94
2018-10-07T10:33:16.146Z,100233.89
2018-10-07T10:38:01.399Z,100238.22
2018-10-07T10:40:33.194Z,100256.81
2018-10-07T10:43:06.948Z,100257.78
2018-10-07T10:45:39.901Z,100252.80
2018-10-07T10:48:20.309Z,100257.25
2018-10-07T10:50:53.795Z,100250.72
2018-10-07T10:53:57.710Z,100253.50
2018-10-07T10:56:29.870Z,100250.73
2018-10-07T10:59:10.804Z,100253.03
2018-10-07T11:01:50.100Z,100253.32
2018-10-07T11:04:23.088Z,100254.55
2018-10-07T11:06:59.999Z,100253.45
2018-10-07T11:10:39.139Z,100255.81
2018-10-07T11:13:32.362Z,100253.06
2018-10-07T11:16:11.013Z,100248.09
2018-10-07T11:20:49.540Z,100244.86
2018-10-07T11:24:30.683Z,100242.13
2018-10-07T11:27:25.214Z,100239.12
2018-10-07T11:30:02.211Z,100240.68
2018-10-07T11:33:19.811Z,100239.38
2018-10-07T11:36:00.251Z,100241.27
2018-10-07T11:38:38.749Z,100233.95
2018-10-07T11:43:28.989Z,100242.86
2018-10-07T11:46:07.526Z,100245.62
2018-10-07T11:49:10.069Z,100256.38
2018-10-07T11:51:56.307Z,100241.98
2018-10-07T11:54:42.697Z,100243.94
2018-10-07T11:57:12.087Z,100235.20
2018-10-07T11:59:41.350Z,100236.53
2018-10-07T12:02:10.821Z,100238.59
2018-10-07T12:04:39.947Z,100236.09
2018-10-07T12:07:09.479Z,100240.84
2018-10-07T12:09:38.675Z,100246.36
2018-10-07T12:12:08.315Z,100249.66
2018-10-07T12:14:37.455Z,100244.43
2018-10-07T12:17:06.967Z,100242.45
2018-10-07T12:19:36.161Z,100254.17
2018-10-07T12:22:08.690Z,100245.53
2018-10-07T12:24:38.567Z,100255.70
2018-10-07T12:27:09.180Z,100262.61
2018-10-07T12:29:38.329Z,100259.69
2018-10-07T12:32:08.619Z,100267.72
2018-10-07T12:34:37.796Z,100266.86
2018-10-07T12:42:31.264Z,100284.01
2018-10-07T12:45:00.374Z,100288.37
2018-10-07T12:47:29.585Z,100297.59
2018-10-07T12:49:58.783Z,100300.98
2018-10-07T12:52:28.042Z,100294.95
2018-10-07T12:54:57.213Z,100303.70
2018-10-07T12:57:26.366Z,100307.40
2018-10-07T12:59:55.540Z,100310.07
2018-10-07T13:02:24.721Z,100314.78
2018-10-07T13:04:54.280Z,100318.89
2018-10-07T13:07:23.761Z,100326.38
2018-10-07T13:09:52.983Z,100325.36
2018-10-07T13:12:22.207Z,100332.29
2018-10-07T13:14:51.411Z,100334.37
2018-10-07T13:17:20.607Z,100329.58
2018-10-07T13:19:49.783Z,100334.84
2018-10-07T13:22:18.967Z,100335.42
2018-10-07T13:24:48.156Z,100339.27
2018-10-07T13:27:17.348Z,100340.73
2018-10-07T13:29:46.539Z,100342.41
2018-10-07T13:32:15.899Z,100352.44
2018-10-07T13:34:45.118Z,100354.36
2018-10-07T13:37:14.291Z,100352.11
2018-10-07T13:39:43.522Z,100360.52
2018-10-07T13:42:12.660Z,100363.45
2018-10-07T13:44:41.872Z,100366.88
2018-10-07T13:47:11.113Z,100372.23
2018-10-07T13:49:40.524Z,100368.63
2018-10-07T13:52:10.119Z,100369.12
2018-10-07T13:54:39.319Z,100380.61
2018-10-07T13:57:08.760Z,100382.45
2018-10-07T13:59:37.930Z,100380.96
2018-10-07T14:02:07.163Z,100381.92
2018-10-07T14:04:36.428Z,100378.14
2018-10-07T14:07:05.600Z,100378.49
2018-10-07T14:09:34.813Z,100383.48
2018-10-07T14:12:04.031Z,100391.16
2018-10-07T14:14:33.231Z,100391.12
2018-10-07T14:17:02.428Z,100400.09
2018-10-07T14:19:31.609Z,100400.73
2018-10-07T14:22:00.905Z,100405.53
2018-10-07T14:24:30.077Z,100411.57
2018-10-07T14:26:59.246Z,100410.83
2018-10-07T14:29:28.411Z,100412.73
2018-10-07T14:31:57.605Z,100413.48
2018-10-07T14:34:26.795Z,100415.97
2018-10-07T14:36:55.948Z,100425.32
2018-10-07T14:39:25.200Z,100421.22
2018-10-07T14:41:54.394Z,100422.92
2018-10-07T14:44:23.564Z,100423.91
2018-10-07T14:46:52.766Z,100424.05
2018-10-07T14:49:22.053Z,100431.13
2018-10-07T14:51:51.218Z,100430.60
2018-10-07T14:54:20.369Z,100432.28
2018-10-07T14:56:49.591Z,100433.11
2018-10-07T14:59:18.779Z,100438.38
2018-10-07T15:01:48.006Z,100446.60
2018-10-07T15:04:17.163Z,100450.55
2018-10-07T15:06:46.430Z,100438.63
2018-10-07T15:09:15.668Z,100433.81
2018-10-07T15:11:44.857Z,100437.15
2018-10-07T15:14:14.053Z,100443.16
2018-10-07T15:16:43.219Z,100443.16
2018-10-07T15:19:12.535Z,100431.84
2018-10-07T15:21:41.872Z,100425.11
2018-10-07T15:24:11.163Z,100422.02
2018-10-07T15:26:40.404Z,100429.67
2018-10-07T15:29:09.917Z,100422.54
2018-10-07T15:31:39.129Z,100413.92
2018-10-07T15:34:08.966Z,100414.88
2018-10-07T15:36:38.183Z,100406.08
2018-10-07T15:39:08.179Z,100410.83
2018-10-07T15:41:37.439Z,100409.27
2018-10-07T15:44:06.830Z,100415.05
2018-10-07T15:46:36.506Z,100410.92
2018-10-07T15:49:05.742Z,100419.31
2018-10-07T15:51:35.653Z,100411.62
2018-10-07T15:54:04.995Z,100417.10
2018-10-07T15:56:34.310Z,100427.23
2018-10-07T15:59:03.504Z,100427.16
2018-10-07T16:01:33.235Z,100422.98
2018-10-07T16:04:02.504Z,100432.42
2018-10-07T16:06:31.650Z,100435.56
2018-10-07T16:09:00.844Z,100435.88
2018-10-07T16:11:30.001Z,100440.72
2018-10-07T16:13:59.216Z,100449.66
2018-10-07T16:16:28.404Z,100447.57
2018-10-07T16:18:57.603Z,100459.58
2018-10-07T16:21:26.936Z,100452.45
2018-10-07T16:23:56.293Z,100466.12
2018-10-07T16:26:25.561Z,100468.50
2018-10-07T16:28:54.623Z,100473.26
2018-10-07T16:31:23.864Z,100469.28
2018-10-07T16:33:53.074Z,100473.73
2018-10-07T16:36:22.271Z,100483.92
2018-10-07T16:38:51.474Z,100486.55
2018-10-07T16:41:20.704Z,100494.25
2018-10-07T16:43:49.887Z,100491.94
2018-10-07T16:46:19.136Z,100499.81
2018-10-07T16:48:48.297Z,100497.02
2018-10-07T16:51:17.926Z,100500.37
2018-10-07T16:53:47.178Z,100502.84
2018-10-07T16:56:17.415Z,100503.16
2018-10-07T16:58:46.591Z,100503.57
2018-10-07T17:01:16.212Z,100513.31
2018-10-07T17:03:45.407Z,100520.66
2018-10-07T17:06:15.624Z,100521.44
2018-10-07T17:08:44.839Z,100525.55
2018-10-07T17:11:14.045Z,100528.08
2018-10-07T17:13:43.286Z,100526.72
2018-10-07T17:16:12.467Z,100527.34
2018-10-07T17:18:41.640Z,100529.98
2018-10-07T17:21:11.254Z,100529.31
2018-10-07T17:23:40.452Z,100532.10
2018-10-07T17:26:09.640Z,100539.77
2018-10-07T17:28:38.947Z,100537.92
2018-10-07T17:31:08.128Z,100540.86
2018-10-07T17:33:37.317Z,100542.31
2018-10-07T17:36:06.525Z,100553.05
2018-10-07T17:38:35.840Z,100553.82
2018-10-07T17:41:05.062Z,100559.27
2018-10-07T17:43:34.309Z,100557.55
2018-10-07T17:46:03.521Z,100561.07
2018-10-07T17:48:32.776Z,100567.49
2018-10-07T17:51:01.965Z,100572.88
2018-10-07T17:53:31.241Z,100582.16
2018-10-07T17:56:00.444Z,100583.22
2018-10-07T17:58:29.663Z,100588.72
2018-10-07T18:00:58.883Z,100591.09
2018-10-07T18:03:28.494Z,100591.55
2018-10-07T18:05:57.872Z,100592.02
2018-10-07T18:08:27.161Z,100590.45
2018-10-07T18:10:56.655Z,100600.70
2018-10-07T18:13:26.812Z,100599.13
2018-10-07T18:15:56.118Z,100598.30
2018-10-07T18:18:26.058Z,100599.22
2018-10-07T18:20:55.493Z,100606.75
2018-10-07T18:23:24.764Z,100610.06
2018-10-07T18:25:54.054Z,100611.61
2018-10-07T18:28:23.231Z,100610.58
2018-10-07T18:30:52.611Z,100617.38
2018-10-07T18:33:21.864Z,100619.19
2018-10-07T18:35:51.152Z,100617.84
2018-10-07T18:38:20.622Z,100619.64
2018-10-07T18:40:49.924Z,100619.39
2018-10-07T18:43:19.458Z,100623.87
2018-10-07T18:45:48.791Z,100624.95
2018-10-07T18:48:17.964Z,100626.25
2018-10-07T18:50:47.184Z,100628.23
2018-10-07T18:53:16.545Z,100630.53
2018-10-07T18:55:45.716Z,100631.13
2018-10-07T18:58:15.493Z,100629.27
2018-10-07T19:00:44.720Z,100638.09
2018-10-07T19:03:14.423Z,100630.92
2018-10-07T19:05:43.639Z,100633.34
2018-10-07T19:08:13.130Z,100636.70
2018-10-07T19:10:42.360Z,100642.52
2018-10-07T19:13:11.740Z,100642.44
2018-10-07T19:15:41.119Z,100652.69
2018-10-07T19:18:10.252Z,100653.98
2018-10-07T19:20:39.514Z,100657.70
2018-10-07T19:23:08.692Z,100655.52
2018-10-07T19:25:38.121Z,100656.70
2018-10-07T19:28:07.466Z,100659.27
2018-10-07T19:30:36.688Z,100664.21
2018-10-07T19:33:05.933Z,100664.07
2018-10-07T19:35:35.156Z,100670.92
2018-10-07T19:38:04.280Z,100672.77
2018-10-07T19:40:33.632Z,100672.48
2018-10-07T19:43:02.845Z,100678.44
2018-10-07T19:45:32.053Z,100678.00
2018-10-07T19:48:01.225Z,100676.34
2018-10-07T19:50:30.499Z,100677.42
2018-10-07T19:52:59.758Z,100677.10
2018-10-07T19:55:28.931Z,100675.97
2018-10-07T19:57:58.158Z,100670.28
2018-10-07T20:00:27.391Z,100669.59
2018-10-07T20:02:56.574Z,100669.57
2018-10-07T20:05:25.748Z,100671.80
2018-10-07T20:07:54.957Z,100678.90
2018-10-07T20:10:24.183Z,100681.23
2018-10-07T20:12:53.402Z,100682.83
2018-10-07T20:15:22.555Z,100687.70
2018-10-07T20:17:51.731Z,100691.44
2018-10-07T20:20:20.981Z,100701.61
2018-10-07T20:22:50.247Z,100702.05
2018-10-07T20:25:21.563Z,100701.86
2018-10-07T20:27:50.747Z,100704.17
2018-10-07T20:30:20.361Z,100705.45
2018-10-07T20:32:50.539Z,100716.20
2018-10-07T20:35:19.856Z,100719.80
2018-10-07T20:37:49.015Z,100720.36
2018-10-07T20:40:19.050Z,100718.05
2018-10-07T20:42:48.212Z,100723.45
2018-10-07T20:45:18.025Z,100717.28
2018-10-07T20:47:47.184Z,100729.53
2018-10-07T20:50:17.312Z,100728.19
2018-10-07T20:52:46.535Z,100724.45
2018-10-07T20:55:17.035Z,100727.68
2018-10-07T20:57:46.212Z,100735.77
2018-10-07T21:00:16.680Z,100724.06
2018-10-07T21:02:45.956Z,100727.27
2018-10-07T21:05:16.118Z,100727.27
2018-10-07T21:07:45.282Z,100720.16
2018-10-07T21:10:15.677Z,100725.63
2018-10-07T21:12:47.732Z,100726.24
2018-10-07T21:15:17.429Z,100723.84
2018-10-07T21:17:46.689Z,100724.39
2018-10-07T21:20:16.941Z,100733.80
2018-10-07T21:22:46.189Z,100736.16
2018-10-07T21:25:16.025Z,100726.33
2018-10-07T21:27:45.193Z,100733.16
2018-10-07T21:30:14.950Z,100729.41
2018-10-07T21:32:44.127Z,100734.27
2018-10-07T21:35:13.840Z,100730.37
2018-10-07T21:37:42.997Z,100733.12
2018-10-07T21:40:12.187Z,100728.31
2018-10-07T21:42:42.154Z,100731.03
2018-10-07T21:45:11.601Z,100734.66
2018-10-07T21:47:40.774Z,100719.95
2018-10-07T21:50:09.951Z,100736.31
2018-10-07T21:52:39.172Z,100732.16
2018-10-07T21:55:08.351Z,100739.64
2018-10-07T21:57:38.364Z,100729.53
2018-10-07T22:00:09.161Z,100732.92
2018-10-07T22:02:39.224Z,100732.28
2018-10-07T22:05:08.368Z,100727.55
2018-10-07T22:07:37.564Z,100731.30
2018-10-07T22:10:06.778Z,100726.09
2018-10-07T22:12:36.297Z,100725.58
2018-10-07T22:15:05.484Z,100719.73
2018-10-07T22:17:34.727Z,100720.38
2018-10-07T22:20:04.033Z,100721.77
2018-10-07T22:22:33.179Z,100727.45
2018-10-07T22:25:02.478Z,100720.16
2018-10-07T22:27:31.637Z,100721.05
2018-10-07T22:30:00.820Z,100707.63
2018-10-07T22:32:30.038Z,100705.31
2018-10-07T22:34:59.245Z,100713.06
2018-10-07T22:37:28.406Z,100711.17
2018-10-07T22:39:57.824Z,100706.44
2018-10-07T22:42:26.987Z,100706.05
2018-10-07T22:44:56.219Z,100707.35
2018-10-07T22:47:25.371Z,100710.42
2018-10-07T22:49:54.558Z,100705.08
2018-10-07T22:52:23.755Z,100707.91
2018-10-07T22:54:52.923Z,100709.14
2018-10-07T22:57:22.094Z,100711.74
2018-10-07T22:59:51.572Z,100708.17
2018-10-07T23:02:21.614Z,100708.36
2018-10-07T23:04:50.787Z,100707.02
2018-10-07T23:07:19.964Z,100701.48
2018-10-07T23:09:49.130Z,100705.05
2018-10-07T23:12:18.336Z,100708.11
2018-10-07T23:14:47.515Z,100711.93
2018-10-07T23:17:16.811Z,100708.25
2018-10-07T23:19:45.976Z,100709.08
2018-10-07T23:22:15.872Z,100714.56
2018-10-07T23:24:45.052Z,100714.69
2018-10-07T23:27:14.683Z,100710.36
2018-10-07T23:29:43.850Z,100715.06
2018-10-07T23:32:13.299Z,100713.08
2018-10-07T23:34:42.463Z,100716.01
2018-10-07T23:37:11.649Z,100714.17
2018-10-07T23:39:40.863Z,100708.80
2018-10-07T23:42:10.132Z,100709.17
2018-10-07T23:44:39.263Z,100705.40
2018-10-07T23:47:08.519Z,100706.50
2018-10-07T23:49:40.710Z,100701.39
2018-10-07T23:52:09.950Z,100701.45
2018-10-07T23:54:39.079Z,100701.70
2018-10-07T23:57:08.250Z,100709.00
2018-10-07T23:59:37.432Z,100708.41
